createdAt,value
2022-09-10T00:02:10.486Z,94756.45
2022-09-10T00:04:37.283Z,94746.38
2022-09-10T00:07:04.177Z,94750.30
2022-09-10T00:09:30.850Z,94758.58
2022-09-10T00:11:58.458Z,94766.08
2022-09-10T00:14:25.224Z,94762.85
2022-09-10T00:16:52.215Z,94743.88
2022-09-10T00:19:19.723Z,94733.99
2022-09-10T00:21:46.606Z,94731.41
2022-09-10T00:24:14.290Z,94728.08
2022-09-10T00:26:41.379Z,94730.26
2022-09-10T00:29:11.515Z,94722.86
2022-09-10T00:31:38.869Z,94718.39
2022-09-10T00:34:07.175Z,94724.40
2022-09-10T00:36:37.449Z,94735.20
2022-09-10T00:39:14.225Z,94737.33
2022-09-10T00:41:43.193Z,94730.11
2022-09-10T00:44:39.719Z,94721.29
2022-09-10T00:47:13.199Z,94720.66
2022-09-10T00:49:46.605Z,94726.11
2022-09-10T00:52:17.201Z,94729.52
2022-09-10T00:54:47.182Z,94745.39
2022-09-10T00:57:23.651Z,94763.94
2022-09-10T00:59:59.427Z,94772.39
2022-09-10T01:02:26.277Z,94769.55
2022-09-10T01:04:55.712Z,94767.48
2022-09-10T01:07:24.245Z,94762.23
2022-09-10T01:09:50.958Z,94748.77
2022-09-10T01:13:00.868Z,94742.59
2022-09-10T01:15:55.372Z,94726.77
2022-09-10T01:18:43.365Z,94715.63
2022-09-10T01:21:16.037Z,94718.77
2022-09-10T01:23:54.734Z,94738.19
2022-09-10T01:27:06.530Z,94747.35
2022-09-10T01:29:33.229Z,94732.28
2022-09-10T01:32:17.529Z,94731.63
2022-09-10T01:35:03.104Z,94736.33
2022-09-10T01:37:31.722Z,94731.64
2022-09-10T01:40:00.251Z,94731.17
2022-09-10T01:42:28.335Z,94737.46
2022-09-10T01:45:01.333Z,94745.02
2022-09-10T01:47:52.649Z,94746.41
2022-09-10T01:50:39.774Z,94756.48
2022-09-10T01:53:31.079Z,94756.87
2022-09-10T01:56:04.033Z,94753.91
2022-09-10T01:58:49.220Z,94761.38
2022-09-10T02:01:40.735Z,94756.42
2022-09-10T02:04:14.651Z,94754.79
2022-09-10T02:06:45.780Z,94745.33
2022-09-10T02:09:15.485Z,94735.60
2022-09-10T03:28:37.724Z,94733.84
2022-09-10T03:31:16.020Z,94731.77
2022-09-10T03:33:42.807Z,94731.67
2022-09-10T03:36:13.492Z,94730.52
2022-09-10T03:38:41.132Z,94735.73
2022-09-10T03:41:08.348Z,94730.73
2022-09-10T03:43:35.419Z,94719.96
2022-09-10T03:46:02.826Z,94715.63
2022-09-10T03:48:30.088Z,94719.70
2022-09-10T03:50:56.995Z,94726.48
2022-09-10T03:53:23.996Z,94722.49
2022-09-10T03:55:52.281Z,94718.17
2022-09-10T03:58:19.375Z,94718.16
2022-09-10T04:00:46.744Z,94715.70
2022-09-10T04:03:14.706Z,94717.45
2022-09-10T04:05:45.452Z,94720.91
2022-09-10T04:08:13.963Z,94720.68
2022-09-10T04:10:42.701Z,94718.30
2022-09-10T05:07:08.010Z,94712.17
2022-09-10T05:09:34.781Z,94720.55
2022-09-10T05:12:01.954Z,94723.00
2022-09-10T05:14:29.624Z,94726.63
2022-09-10T05:16:57.029Z,94736.42
2022-09-10T05:19:23.735Z,94745.36
2022-09-10T05:21:50.456Z,94751.12
2022-09-10T05:24:17.412Z,94754.13
2022-09-10T05:26:45.138Z,94755.02
2022-09-10T05:29:12.356Z,94752.16
2022-09-10T05:31:39.132Z,94752.86
2022-09-10T05:34:05.827Z,94759.65
2022-09-10T05:36:32.729Z,94767.59
2022-09-10T05:39:00.507Z,94763.89
2022-09-10T05:41:28.379Z,94756.73
2022-09-10T05:43:55.480Z,94753.86
2022-09-10T05:46:24.409Z,94747.01
2022-09-10T05:48:53.007Z,94744.10
2022-09-10T05:51:20.213Z,94741.42
2022-09-10T05:53:46.931Z,94739.27
2022-09-10T05:56:13.647Z,94738.20
2022-09-10T05:58:40.495Z,94736.84
2022-09-10T06:01:07.350Z,94740.21
2022-09-10T06:03:34.785Z,94744.17
2022-09-10T06:06:01.630Z,94730.83
2022-09-10T06:08:28.414Z,94733.11
2022-09-10T06:11:00.582Z,94735.71
2022-09-10T06:13:28.130Z,94739.17
2022-09-10T06:15:54.922Z,94744.19
2022-09-10T06:18:22.249Z,94739.90
2022-09-10T06:20:49.259Z,94735.96
2022-09-10T06:23:16.797Z,94739.64
2022-09-10T06:25:44.681Z,94745.23
2022-09-10T06:28:12.885Z,94740.85
2022-09-10T06:30:39.681Z,94739.36
2022-09-10T06:33:06.391Z,94743.92
2022-09-10T06:35:33.637Z,94750.63
2022-09-10T06:38:00.364Z,94750.02
2022-09-10T06:40:27.879Z,94751.45
2022-09-10T06:42:54.997Z,94748.95
2022-09-10T08:29:35.330Z,94730.14
2022-09-10T08:32:02.183Z,94738.30
2022-09-10T08:34:30.108Z,94743.60
2022-09-10T08:36:57.724Z,94744.11
2022-09-10T08:39:24.532Z,94746.12
2022-09-10T08:41:56.204Z,94742.12
2022-09-10T08:44:28.727Z,94743.27
2022-09-10T08:47:21.476Z,94747.11
2022-09-10T08:49:59.264Z,94747.76
2022-09-10T08:52:34.552Z,94754.11
2022-09-10T08:55:20.878Z,94747.28
2022-09-10T08:58:09.568Z,94746.70
2022-09-10T09:00:40.465Z,94746.33
2022-09-10T09:03:22.110Z,94749.52
2022-09-10T09:06:00.877Z,94752.83
2022-09-10T09:09:06.951Z,94750.89
2022-09-10T09:11:49.914Z,94748.06
2022-09-10T09:14:39.895Z,94740.92
2022-09-10T09:17:38.464Z,94739.00
2022-09-10T09:20:15.715Z,94739.45
2022-09-10T09:22:48.704Z,94733.46
2022-09-10T09:25:28.886Z,94729.33
2022-09-10T09:27:57.887Z,94732.66
2022-09-10T09:30:59.819Z,94734.55
2022-09-10T09:36:45.090Z,94727.33
2022-09-10T09:39:32.420Z,94725.09
2022-09-10T09:42:23.744Z,94725.54
2022-09-10T09:45:07.108Z,94712.13
2022-09-10T09:47:42.921Z,94713.70
2022-09-10T09:50:17.438Z,94714.64
2022-09-10T09:52:57.227Z,94722.17
2022-09-10T09:59:34.479Z,94730.47
2022-09-10T10:02:58.283Z,94732.98
2022-09-10T10:05:32.174Z,94729.59
2022-09-10T10:08:18.219Z,94725.55
2022-09-10T10:11:01.841Z,94724.05
2022-09-10T10:13:50.879Z,94722.47
2022-09-10T10:19:40.971Z,94723.84
2022-09-10T10:22:19.420Z,94719.13
2022-09-10T10:24:51.804Z,94718.74
2022-09-10T10:27:21.807Z,94710.86
2022-09-10T10:30:44.300Z,94700.72
2022-09-10T10:33:22.233Z,94697.60
2022-09-10T10:36:15.159Z,94702.40
2022-09-10T10:39:27.283Z,94707.65
2022-09-10T10:42:46.500Z,94699.75
2022-09-10T10:45:37.770Z,94693.75
2022-09-10T10:52:31.906Z,94686.98
2022-09-10T10:55:52.877Z,94681.49
2022-09-10T10:59:00.968Z,94678.23
2022-09-10T11:12:21.875Z,94665.58
2022-09-10T11:15:01.217Z,94661.66
2022-09-10T11:24:55.769Z,94657.02
2022-09-10T11:41:23.143Z,94652.20
2022-09-10T11:43:53.220Z,94654.46
2022-09-10T11:52:16.821Z,94643.85
2022-09-10T11:54:52.341Z,94638.00
2022-09-10T11:58:30.219Z,94637.91
2022-09-10T12:01:37.048Z,94636.75
2022-09-10T12:08:46.277Z,94631.95
2022-09-10T12:15:57.190Z,94630.86
2022-09-10T12:21:37.476Z,94624.64
2022-09-10T12:24:33.358Z,94618.73
2022-09-10T12:27:14.275Z,94615.56
2022-09-10T12:33:32.724Z,94612.84
2022-09-10T12:36:04.906Z,94611.88
2022-09-10T12:39:08.032Z,94607.54
2022-09-10T12:41:37.534Z,94600.65
2022-09-10T12:44:36.523Z,94595.50
2022-09-10T12:47:15.417Z,94588.40
2022-09-10T12:49:54.994Z,94584.96
2022-09-10T12:52:34.550Z,94586.97
2022-09-10T12:55:43.861Z,94580.52
2022-09-10T12:58:46.262Z,94575.48
2022-09-10T13:01:15.959Z,94580.52
2022-09-10T13:03:59.964Z,94580.92
2022-09-10T13:06:48.639Z,94572.65
2022-09-10T13:09:31.314Z,94564.89
2022-09-10T13:12:18.195Z,94562.16
2022-09-10T13:14:54.868Z,94565.64
2022-09-10T13:17:40.769Z,94566.74
2022-09-10T13:20:14.799Z,94567.15
2022-09-10T13:23:04.303Z,94563.77
2022-09-10T13:25:45.318Z,94564.54
2022-09-10T13:28:30.577Z,94563.79
2022-09-10T13:31:31.342Z,94560.58
2022-09-10T13:34:15.471Z,94559.52
2022-09-10T13:37:25.363Z,94552.06
2022-09-10T13:40:31.154Z,94553.62
2022-09-10T13:43:06.902Z,94550.59
2022-09-10T13:45:50.574Z,94544.60
2022-09-10T13:48:51.820Z,94546.59
2022-09-10T13:51:54.480Z,94546.98
2022-09-10T13:54:47.641Z,94548.80
2022-09-10T13:57:41.065Z,94543.71
2022-09-10T14:00:25.683Z,94534.69
2022-09-10T14:02:55.502Z,94536.33
2022-09-10T14:05:44.646Z,94535.77
2022-09-10T14:08:24.849Z,94540.06
2022-09-10T14:11:27.543Z,94534.65
2022-09-10T14:13:56.041Z,94530.30
2022-09-10T14:16:50.450Z,94531.98
2022-09-10T14:19:31.639Z,94528.09
2022-09-10T14:21:58.644Z,94527.55
2022-09-10T14:24:54.072Z,94524.59
2022-09-10T14:27:25.793Z,94523.67
2022-09-10T14:29:58.167Z,94528.53
2022-09-10T14:32:40.408Z,94520.24
2022-09-10T14:35:45.406Z,94517.42
2022-09-10T14:38:30.314Z,94510.11
2022-09-10T14:41:19.009Z,94511.62
2022-09-10T14:43:46.680Z,94509.34
2022-09-10T14:47:10.626Z,94510.21
2022-09-10T14:49:39.720Z,94514.17
2022-09-10T14:52:06.817Z,94509.19
2022-09-10T14:54:35.036Z,94507.13
2022-09-10T14:57:04.974Z,94505.05
2022-09-10T14:59:36.504Z,94502.09
2022-09-10T15:02:13.170Z,94504.98
2022-09-10T15:04:40.105Z,94509.65
2022-09-10T15:07:09.842Z,94508.84
2022-09-10T15:09:37.565Z,94510.39
2022-09-10T15:12:23.080Z,94510.30
2022-09-10T15:14:51.082Z,94509.89
2022-09-10T15:17:18.665Z,94510.45
2022-09-10T15:19:55.503Z,94521.24
2022-09-10T15:22:27.686Z,94521.57
2022-09-10T15:25:11.678Z,94514.48
2022-09-10T15:27:39.006Z,94507.73
2022-09-10T15:30:06.717Z,94513.50
2022-09-10T15:32:33.544Z,94521.00
2022-09-10T15:35:00.457Z,94520.96
2022-09-10T15:37:43.259Z,94525.00
2022-09-10T15:40:11.212Z,94529.30
2022-09-10T15:42:37.937Z,94531.45
2022-09-10T15:45:05.060Z,94533.23
2022-09-10T15:47:34.425Z,94532.69
2022-09-10T15:50:06.297Z,94534.97
2022-09-10T15:52:33.164Z,94535.40
2022-09-10T15:55:04.535Z,94538.80
2022-09-10T15:57:31.694Z,94536.05
2022-09-10T15:59:58.522Z,94540.23
2022-09-10T16:02:25.315Z,94543.52
2022-09-10T16:04:52.167Z,94541.83
2022-09-10T16:07:18.904Z,94541.60
2022-09-10T16:09:48.848Z,94542.77
2022-09-10T16:12:17.484Z,94546.17
2022-09-10T16:14:46.625Z,94540.94
2022-09-10T16:17:23.547Z,94541.53
2022-09-10T16:19:51.932Z,94543.87
2022-09-10T16:22:23.122Z,94542.46
2022-09-10T16:24:49.914Z,94543.52
2022-09-10T16:27:17.945Z,94537.89
2022-09-10T16:29:45.518Z,94536.35
2022-09-10T16:32:15.127Z,94536.31
2022-09-10T16:34:43.510Z,94539.45
2022-09-10T16:37:10.258Z,94541.48
2022-09-10T16:39:37.525Z,94542.14
2022-09-10T16:42:04.367Z,94546.04
2022-09-10T16:44:32.251Z,94545.34
2022-09-10T16:46:59.753Z,94542.97
2022-09-10T16:49:27.650Z,94544.70
2022-09-10T16:51:54.617Z,94545.37
2022-09-10T16:54:22.668Z,94539.23
2022-09-10T16:56:58.770Z,94537.36
2022-09-10T16:59:43.153Z,94540.17
2022-09-10T17:02:22.235Z,94537.88
2022-09-10T17:08:40.581Z,94542.69
2022-09-10T17:11:08.992Z,94540.91
2022-09-10T17:29:04.204Z,94592.52
2022-09-10T17:31:31.459Z,94601.84
2022-09-10T17:33:59.475Z,94606.27
2022-09-10T17:36:26.949Z,94626.90
2022-09-10T17:38:55.144Z,94630.33
2022-09-10T17:41:23.761Z,94637.27
2022-09-10T17:43:51.247Z,94636.23
2022-09-10T17:46:21.500Z,94634.85
2022-09-10T17:48:48.978Z,94633.02
2022-09-10T17:51:21.814Z,94637.65
2022-09-10T17:53:49.283Z,94640.46
2022-09-10T17:56:19.365Z,94639.10
2022-09-10T17:58:49.927Z,94640.50
2022-09-10T18:01:32.243Z,94637.67
2022-09-10T18:03:59.316Z,94649.09
2022-09-10T18:06:29.348Z,94651.26
2022-09-10T18:09:03.849Z,94652.52
2022-09-10T18:11:32.720Z,94661.66
2022-09-10T18:14:04.532Z,94666.08
2022-09-10T18:16:34.211Z,94667.02
2022-09-10T18:19:12.864Z,94658.75
2022-09-10T18:21:41.968Z,94658.17
2022-09-10T18:24:19.215Z,94660.58
2022-09-10T18:26:48.326Z,94670.11
2022-09-10T18:29:18.114Z,94671.05
2022-09-10T18:31:49.680Z,94677.77
2022-09-10T18:34:23.228Z,94684.65
2022-09-10T18:36:54.709Z,94687.80
2022-09-10T18:39:22.948Z,94686.92
2022-09-10T18:41:50.054Z,94685.95
2022-09-10T18:44:31.614Z,94689.90
2022-09-10T18:46:58.576Z,94686.45
2022-09-10T18:49:26.310Z,94692.40
2022-09-10T18:51:55.367Z,94698.59
2022-09-10T18:54:23.509Z,94695.06
2022-09-10T18:56:51.304Z,94697.20
2022-09-10T18:59:20.390Z,94698.89
2022-09-10T19:01:49.256Z,94704.34
2022-09-10T19:04:28.521Z,94702.14
2022-09-10T19:07:07.772Z,94695.52
2022-09-10T19:09:34.843Z,94707.75
2022-09-10T19:13:01.946Z,94710.10
2022-09-10T19:15:28.175Z,94707.25
2022-09-10T19:17:55.015Z,94706.21
2022-09-10T19:20:22.021Z,94704.08
2022-09-10T19:22:48.802Z,94701.25
2022-09-10T19:25:15.561Z,94703.54
2022-09-10T19:27:42.405Z,94707.26
2022-09-10T19:30:09.851Z,94712.31
2022-09-10T19:32:37.534Z,94709.41
2022-09-10T19:35:04.609Z,94717.39
2022-09-10T19:37:37.419Z,94713.94
2022-09-10T19:40:04.536Z,94711.02
2022-09-10T19:42:31.262Z,94707.92
2022-09-10T19:45:16.167Z,94708.39
2022-09-10T19:48:08.988Z,94710.84
2022-09-10T19:50:35.781Z,94705.69
2022-09-10T19:55:43.591Z,94716.14
2022-09-10T19:58:10.885Z,94713.09
2022-09-10T20:00:46.817Z,94712.23
2022-09-10T20:03:37.366Z,94710.86
2022-09-10T20:06:04.749Z,94709.51
2022-09-10T20:08:35.587Z,94707.10
2022-09-10T20:11:06.110Z,94706.05
2022-09-10T20:13:37.286Z,94700.30
2022-09-10T20:16:09.121Z,94698.46
2022-09-10T20:18:39.210Z,94699.70
2022-09-10T20:21:22.126Z,94702.53
2022-09-10T20:23:51.689Z,94701.42
2022-09-10T20:26:22.621Z,94703.96
2022-09-10T20:29:01.608Z,94708.88
2022-09-10T20:31:31.556Z,94709.65
2022-09-10T20:34:00.866Z,94709.23
2022-09-10T20:36:29.233Z,94711.31
2022-09-10T20:38:56.455Z,94716.13
2022-09-10T20:41:24.501Z,94719.91
2022-09-10T20:43:53.327Z,94723.10
2022-09-10T20:46:22.335Z,94722.92
2022-09-10T20:48:51.203Z,94719.34
2022-09-10T20:51:19.432Z,94723.02
2022-09-10T20:53:46.918Z,94716.34
2022-09-10T20:56:18.656Z,94708.05
2022-09-10T20:58:46.852Z,94703.44
2022-09-10T21:01:19.163Z,94708.34
2022-09-10T21:03:47.866Z,94714.89
2022-09-10T21:06:18.560Z,94715.48
2022-09-10T21:08:47.837Z,94708.43
2022-09-10T21:11:17.818Z,94703.36
2022-09-10T21:13:53.699Z,94701.58
2022-09-10T21:16:30.327Z,94704.38
2022-09-10T21:19:02.147Z,94704.02
2022-09-10T21:21:32.007Z,94701.58
2022-09-10T21:24:04.940Z,94700.95
2022-09-10T21:26:35.258Z,94698.21
2022-09-10T21:29:04.116Z,94697.59
2022-09-10T21:31:31.699Z,94702.23
2022-09-10T21:34:03.059Z,94703.36
2022-09-10T21:36:32.724Z,94704.27
2022-09-10T21:39:02.140Z,94705.44
2022-09-10T21:41:33.434Z,94708.05
2022-09-10T21:44:03.545Z,94704.70
2022-09-10T21:46:32.348Z,94707.20
2022-09-10T21:48:59.794Z,94706.20
2022-09-10T21:51:26.658Z,94711.25
2022-09-10T21:53:55.113Z,94711.22
2022-09-10T21:56:23.071Z,94709.58
2022-09-10T21:58:49.916Z,94714.00
2022-09-10T22:01:19.707Z,94713.56
2022-09-10T22:03:48.039Z,94715.77
2022-09-10T22:06:24.788Z,94721.91
2022-09-10T22:08:58.751Z,94717.19
2022-09-10T22:11:34.762Z,94720.41
2022-09-10T22:14:22.933Z,94719.21
2022-09-10T22:16:50.058Z,94715.98
2022-09-10T22:19:22.717Z,94713.33
2022-09-10T22:21:50.340Z,94715.93
2022-09-10T22:24:19.168Z,94717.73
2022-09-10T22:26:47.497Z,94726.08
2022-09-10T22:29:19.899Z,94732.21
2022-09-10T22:31:47.109Z,94727.95
2022-09-10T22:34:15.720Z,94725.75
2022-09-10T22:36:44.334Z,94722.67
2022-09-10T22:39:14.072Z,94728.08
2022-09-10T22:41:41.886Z,94732.28
2022-09-10T22:44:09.501Z,94731.91
2022-09-10T22:46:37.300Z,94732.86
2022-09-10T22:49:05.425Z,94735.88
2022-09-10T22:51:36.157Z,94738.33
2022-09-10T22:54:04.938Z,94741.95
2022-09-10T22:56:31.994Z,94736.80
2022-09-10T22:59:00.544Z,94738.46
2022-09-10T23:01:34.483Z,94734.52
2022-09-10T23:04:03.050Z,94735.09
2022-09-10T23:06:32.320Z,94733.95
2022-09-10T23:09:06.537Z,94734.61
2022-09-10T23:11:34.619Z,94731.90
2022-09-10T23:14:04.019Z,94726.24
2022-09-10T23:16:36.834Z,94734.47
2022-09-10T23:19:06.776Z,94735.48
2022-09-10T23:21:35.231Z,94737.58
2022-09-10T23:24:07.605Z,94744.21
2022-09-10T23:26:34.594Z,94741.48
2022-09-10T23:29:04.517Z,94747.27
2022-09-10T23:31:33.696Z,94745.72
2022-09-10T23:34:03.752Z,94745.21
2022-09-10T23:36:36.097Z,94743.88
2022-09-10T23:39:06.793Z,94739.35
2022-09-10T23:41:34.734Z,94740.46
2022-09-10T23:44:01.562Z,94745.23
2022-09-10T23:46:28.305Z,94740.81
2022-09-10T23:48:55.099Z,94741.22
2022-09-10T23:51:22.867Z,94735.86
2022-09-10T23:53:50.242Z,94735.71
2022-09-10T23:56:19.208Z,94733.77
2022-09-10T23:58:46.514Z,94728.63
